Time;durP1;ratioP1;P1;durP2;ratioP2;P2;SDS_P1;SDS_P2;PMS_P1;PMS_P2;Temp;Humidity;BMP_temperature;BMP_pressure;BME280_temperature;BME280_humidity;BME280_pressure;Samples;Min_cycle;Max_cycle;Signal;HPM_P1;HPM_P2
2022/09/11 00:01:47;;;;;;;29.20;27.20;;;;;;;;;;5094034;28;20424;-78
2022/09/11 00:04:15;;;;;;;29.10;27.10;;;;;;;;;;5094984;28;20499;-78
2022/09/11 00:06:44;;;;;;;30.17;28.13;;;;;;;;;;5094534;28;20446;-78
2022/09/11 00:09:12;;;;;;;28.00;26.20;;;;;;;;;;5094575;28;20479;-78
2022/09/11 00:11:40;;;;;;;28.10;26.20;;;;;;;;;;5093723;28;20467;-78
2022/09/11 00:14:09;;;;;;;28.53;26.60;;;;;;;;;;5094800;28;20449;-78
2022/09/11 00:16:38;;;;;;;28.00;26.20;;;;;;;;;;5094414;28;20424;-77
2022/09/11 00:19:06;;;;;;;27.07;25.27;;;;;;;;;;5094662;28;20527;-76
2022/09/11 00:21:33;;;;;;;28.33;26.47;;;;;;;;;;5093830;28;20916;-78
2022/09/11 00:24:03;;;;;;;27.73;25.93;;;;;;;;;;5094363;28;20437;-78
2022/09/11 00:26:30;;;;;;;27.73;25.73;;;;;;;;;;5095975;28;20427;-78
2022/09/11 00:29:00;;;;;;;28.00;26.10;;;;;;;;;;5098030;28;20483;-77
2022/09/11 00:31:29;;;;;;;28.63;26.57;;;;;;;;;;5097338;28;20450;-78
2022/09/11 00:33:56;;;;;;;29.20;27.20;;;;;;;;;;5098226;28;20419;-79
2022/09/11 00:36:24;;;;;;;29.30;27.20;;;;;;;;;;5098189;28;20426;-78
2022/09/11 00:38:52;;;;;;;29.70;27.47;;;;;;;;;;5098134;28;20445;-77
2022/09/11 00:41:21;;;;;;;31.97;28.90;;;;;;;;;;5097299;28;20456;-78
2022/09/11 00:44:00;;;;;;;32.83;30.33;;;;;;;;;;5097714;28;21225;-78
2022/09/11 00:46:31;;;;;;;28.80;26.70;;;;;;;;;;5098212;28;20426;-77
2022/09/11 00:48:59;;;;;;;31.97;29.30;;;;;;;;;;5097444;28;20515;-78
2022/09/11 00:51:27;;;;;;;32.83;30.30;;;;;;;;;;5097520;28;20472;-78
2022/09/11 00:53:57;;;;;;;36.70;33.60;;;;;;;;;;5097629;28;20416;-79
2022/09/11 00:56:28;;;;;;;314.67;289.30;;;;;;;;;;5097823;28;20794;-77
2022/09/11 00:58:56;;;;;;;312.67;278.50;;;;;;;;;;5097459;28;20477;-78
2022/09/11 01:01:24;;;;;;;106.17;99.50;;;;;;;;;;5097215;28;20449;-79
2022/09/11 01:03:52;;;;;;;284.83;266.13;;;;;;;;;;5097482;28;20423;-78
2022/09/11 01:06:20;;;;;;;280.90;260.90;;;;;;;;;;5097670;28;20456;-77
2022/09/11 01:08:48;;;;;;;37.67;34.27;;;;;;;;;;5096920;28;21003;-78
2022/09/11 01:11:22;;;;;;;40.50;36.80;;;;;;;;;;5096912;28;20427;-77
2022/09/11 01:13:55;;;;;;;39.87;35.87;;;;;;;;;;5097180;28;20511;-78
2022/09/11 01:16:27;;;;;;;36.80;33.40;;;;;;;;;;5097201;28;20430;-78
2022/09/11 01:18:56;;;;;;;38.07;34.63;;;;;;;;;;5097031;28;20801;-78
2022/09/11 01:21:38;;;;;;;36.67;33.37;;;;;;;;;;5096864;28;20930;-78
2022/09/11 01:24:11;;;;;;;38.03;34.33;;;;;;;;;;5063245;28;20448;-78
2022/09/11 01:26:43;;;;;;;36.13;32.93;;;;;;;;;;5097222;28;20458;-77
2022/09/11 01:29:17;;;;;;;37.17;33.90;;;;;;;;;;5096974;28;20499;-78
2022/09/11 01:31:55;;;;;;;38.20;34.80;;;;;;;;;;5096741;28;20466;-78
2022/09/11 01:34:28;;;;;;;37.53;34.20;;;;;;;;;;5096471;28;20746;-78
2022/09/11 01:36:58;;;;;;;36.57;33.17;;;;;;;;;;5096650;28;20793;-77
2022/09/11 01:39:30;;;;;;;38.50;34.97;;;;;;;;;;5096448;28;20467;-78
2022/09/11 01:42:01;;;;;;;39.93;36.07;;;;;;;;;;5096354;28;20425;-79
2022/09/11 01:44:32;;;;;;;36.20;33.00;;;;;;;;;;5096710;28;20429;-78
2022/09/11 01:47:00;;;;;;;36.43;33.00;;;;;;;;;;5096762;28;20427;-78
2022/09/11 01:49:30;;;;;;;46.43;41.73;;;;;;;;;;5096161;28;20492;-78
2022/09/11 01:52:00;;;;;;;38.80;35.00;;;;;;;;;;5095828;28;20424;-78
2022/09/11 01:54:30;;;;;;;334.57;288.07;;;;;;;;;;5096756;28;20746;-78
2022/09/11 01:57:04;;;;;;;36.90;33.40;;;;;;;;;;5096819;28;20475;-78
2022/09/11 01:59:37;;;;;;;56.23;51.63;;;;;;;;;;5096281;28;20450;-78
2022/09/11 02:02:06;;;;;;;370.20;259.03;;;;;;;;;;5095590;28;20434;-78
2022/09/11 02:04:37;;;;;;;300.00;273.40;;;;;;;;;;5095712;28;20499;-78
2022/09/11 02:07:11;;;;;;;308.53;275.00;;;;;;;;;;5095334;28;20525;-78
2022/09/11 02:09:40;;;;;;;297.37;268.03;;;;;;;;;;5095320;28;20931;-77
2022/09/11 02:12:09;;;;;;;265.90;246.80;;;;;;;;;;5095066;28;20429;-77
2022/09/11 02:14:40;;;;;;;308.73;266.23;;;;;;;;;;5095134;28;20423;-78
2022/09/11 02:17:11;;;;;;;361.27;213.27;;;;;;;;;;5095476;28;20495;-77
2022/09/11 02:19:40;;;;;;;302.13;271.77;;;;;;;;;;5095559;28;20220;-77
2022/09/11 02:22:07;;;;;;;412.87;252.07;;;;;;;;;;5094961;28;20454;-77
2022/09/11 02:24:35;;;;;;;155.93;142.27;;;;;;;;;;5095079;28;20497;-76
2022/09/11 02:27:03;;;;;;;262.33;198.93;;;;;;;;;;5095314;28;20820;-77
2022/09/11 02:29:31;;;;;;;258.50;197.10;;;;;;;;;;5094676;28;20479;-78
2022/09/11 02:32:00;;;;;;;346.17;229.03;;;;;;;;;;5094270;28;20447;-78
2022/09/11 02:34:28;;;;;;;334.85;213.00;;;;;;;;;;5094569;28;20446;-78
2022/09/11 02:37:04;;;;;;;96.20;67.47;;;;;;;;;;5094711;28;20664;-77
2022/09/11 02:39:41;;;;;;;43.77;38.77;;;;;;;;;;5095037;28;20831;-78
2022/09/11 02:42:16;;;;;;;42.30;37.90;;;;;;;;;;5094485;28;20431;-78
2022/09/11 02:44:46;;;;;;;41.17;36.70;;;;;;;;;;5094476;28;20413;-77
2022/09/11 02:47:19;;;;;;;39.83;36.00;;;;;;;;;;5094944;28;20449;-78
2022/09/11 02:49:54;;;;;;;46.00;41.50;;;;;;;;;;5093753;28;20467;-77
2022/09/11 02:52:29;;;;;;;41.77;37.73;;;;;;;;;;5094612;28;20804;-77
2022/09/11 02:55:01;;;;;;;101.83;90.03;;;;;;;;;;5095430;28;20459;-78
2022/09/11 02:57:31;;;;;;;103.13;88.60;;;;;;;;;;5095091;28;20502;-78
2022/09/11 03:00:00;;;;;;;39.73;35.93;;;;;;;;;;5094914;28;20440;-78
2022/09/11 03:02:29;;;;;;;58.50;51.07;;;;;;;;;;5093989;28;20794;-78
2022/09/11 03:04:56;;;;;;;127.93;115.73;;;;;;;;;;5094628;28;20452;-78
2022/09/11 03:07:24;;;;;;;43.33;37.23;;;;;;;;;;5095304;28;20444;-79
2022/09/11 03:09:51;;;;;;;37.10;33.63;;;;;;;;;;5094644;28;20463;-78
2022/09/11 03:12:19;;;;;;;39.93;35.87;;;;;;;;;;5094430;28;20404;-77
2022/09/11 03:14:47;;;;;;;53.77;44.17;;;;;;;;;;5095035;28;20944;-78
2022/09/11 03:17:15;;;;;;;45.93;41.07;;;;;;;;;;5094865;28;20452;-78
2022/09/11 03:19:44;;;;;;;49.17;42.47;;;;;;;;;;5095245;28;20439;-78
2022/09/11 03:22:11;;;;;;;45.30;40.80;;;;;;;;;;5094236;28;20446;-78
2022/09/11 03:24:39;;;;;;;45.70;40.80;;;;;;;;;;5094383;28;20508;-78
2022/09/11 03:27:06;;;;;;;47.60;42.40;;;;;;;;;;5094777;28;20926;-78
2022/09/11 03:29:34;;;;;;;55.83;45.87;;;;;;;;;;5094329;28;20538;-78
2022/09/11 03:32:01;;;;;;;53.00;43.03;;;;;;;;;;5094273;28;20456;-80
2022/09/11 03:34:28;;;;;;;54.67;45.23;;;;;;;;;;5094838;28;20444;-78
2022/09/11 03:37:00;;;;;;;330.10;222.23;;;;;;;;;;5094447;28;20419;-78
2022/09/11 03:39:27;;;;;;;50.73;43.97;;;;;;;;;;5094738;28;20907;-78
2022/09/11 03:41:54;;;;;;;50.50;45.33;;;;;;;;;;5094203;28;20449;-78
2022/09/11 03:44:21;;;;;;;53.53;46.33;;;;;;;;;;5094910;28;20449;-78
2022/09/11 03:46:49;;;;;;;47.20;42.03;;;;;;;;;;5094547;28;20422;-79
2022/09/11 03:49:16;;;;;;;49.60;43.17;;;;;;;;;;5094216;28;20477;-77
2022/09/11 03:51:43;;;;;;;48.70;42.10;;;;;;;;;;5094180;28;20447;-79
2022/09/11 03:54:14;;;;;;;61.57;48.77;;;;;;;;;;5095267;28;20456;-79
2022/09/11 03:56:41;;;;;;;51.10;41.63;;;;;;;;;;5095009;28;20466;-78
2022/09/11 03:59:09;;;;;;;45.40;40.37;;;;;;;;;;5094849;28;20819;-79
2022/09/11 04:01:36;;;;;;;47.50;42.20;;;;;;;;;;5096434;28;20807;-79
2022/09/11 04:04:04;;;;;;;53.53;42.97;;;;;;;;;;5098830;28;20476;-78
2022/09/11 04:06:31;;;;;;;48.20;41.97;;;;;;;;;;5098754;28;20489;-78
2022/09/11 04:08:59;;;;;;;47.43;42.33;;;;;;;;;;5098485;28;20453;-78
2022/09/11 04:11:28;;;;;;;45.53;40.73;;;;;;;;;;5097765;28;20854;-77
2022/09/11 04:13:56;;;;;;;44.60;39.90;;;;;;;;;;5098458;28;20478;-78
2022/09/11 04:16:23;;;;;;;44.23;39.60;;;;;;;;;;5098323;28;20422;-78
2022/09/11 04:18:52;;;;;;;48.23;40.43;;;;;;;;;;5098331;28;20446;-78
2022/09/11 04:21:20;;;;;;;49.50;41.30;;;;;;;;;;5097625;28;20463;-78
2022/09/11 04:23:52;;;;;;;47.67;42.50;;;;;;;;;;5097828;28;20457;-79
2022/09/11 04:26:20;;;;;;;53.30;44.43;;;;;;;;;;5098359;28;20430;-78
2022/09/11 04:28:48;;;;;;;57.40;48.17;;;;;;;;;;5098469;28;20476;-78
2022/09/11 04:31:16;;;;;;;52.23;43.83;;;;;;;;;;5097677;28;20459;-78
2022/09/11 04:33:44;;;;;;;54.30;44.93;;;;;;;;;;5098303;28;20424;-78
2022/09/11 04:36:12;;;;;;;51.27;44.50;;;;;;;;;;5097868;28;20448;-78
2022/09/11 04:38:40;;;;;;;52.10;42.63;;;;;;;;;;5098174;28;20443;-78
2022/09/11 04:41:08;;;;;;;54.53;46.43;;;;;;;;;;5097107;28;20439;-78
2022/09/11 04:43:36;;;;;;;53.60;47.17;;;;;;;;;;5098222;28;20453;-78
2022/09/11 04:46:06;;;;;;;49.10;41.90;;;;;;;;;;5097689;28;20449;-78
2022/09/11 04:48:36;;;;;;;48.97;43.63;;;;;;;;;;5098052;28;20464;-78
2022/09/11 04:51:05;;;;;;;49.23;42.33;;;;;;;;;;5097173;28;20494;-78
2022/09/11 04:53:33;;;;;;;50.07;43.60;;;;;;;;;;5097139;28;20461;-78
2022/09/11 04:56:05;;;;;;;49.17;43.13;;;;;;;;;;5097028;28;20426;-78
2022/09/11 04:58:32;;;;;;;50.10;43.07;;;;;;;;;;5097347;28;20467;-78
2022/09/11 05:00:59;;;;;;;50.40;43.53;;;;;;;;;;5096916;28;20456;-78
2022/09/11 05:03:28;;;;;;;56.73;44.20;;;;;;;;;;5097348;28;20820;-78
2022/09/11 05:05:56;;;;;;;48.57;42.20;;;;;;;;;;5096410;28;20528;-78
2022/09/11 05:08:25;;;;;;;51.47;44.63;;;;;;;;;;5096965;28;20553;-78
2022/09/11 05:10:53;;;;;;;56.07;46.67;;;;;;;;;;5096228;28;20481;-77
2022/09/11 05:13:21;;;;;;;48.63;41.13;;;;;;;;;;5094401;28;20445;-76
2022/09/11 05:15:48;;;;;;;55.93;45.80;;;;;;;;;;5095058;28;20452;-77
2022/09/11 05:18:16;;;;;;;58.53;45.83;;;;;;;;;;5095174;28;20438;-76
2022/09/11 05:20:44;;;;;;;57.40;46.67;;;;;;;;;;5095484;28;20416;-76
2022/09/11 05:23:12;;;;;;;52.03;45.07;;;;;;;;;;5094958;28;20501;-76
2022/09/11 05:25:39;;;;;;;59.40;43.90;;;;;;;;;;5095541;28;20469;-76
2022/09/11 05:28:07;;;;;;;57.67;44.97;;;;;;;;;;5095205;28;20457;-75
2022/09/11 05:30:34;;;;;;;54.77;44.70;;;;;;;;;;5095254;28;20449;-77
2022/09/11 05:33:01;;;;;;;53.33;44.13;;;;;;;;;;5094029;28;20466;-77
2022/09/11 05:35:30;;;;;;;52.60;42.57;;;;;;;;;;5095249;28;20930;-75
2022/09/11 05:37:58;;;;;;;60.00;44.50;;;;;;;;;;5095097;28;20898;-76
2022/09/11 05:40:25;;;;;;;62.97;46.47;;;;;;;;;;5093913;28;20422;-76
2022/09/11 05:42:53;;;;;;;66.10;45.63;;;;;;;;;;5094221;28;20452;-76
2022/09/11 05:45:21;;;;;;;69.80;46.33;;;;;;;;;;5094893;28;20450;-76
2022/09/11 05:47:48;;;;;;;68.83;46.67;;;;;;;;;;5094178;28;20832;-75
2022/09/11 05:50:15;;;;;;;62.00;42.87;;;;;;;;;;5094685;28;20455;-75
2022/09/11 05:52:43;;;;;;;66.03;45.83;;;;;;;;;;5095328;28;20928;-77
2022/09/11 05:55:12;;;;;;;52.93;42.37;;;;;;;;;;5106567;28;20455;-79
2022/09/11 05:57:39;;;;;;;62.50;44.17;;;;;;;;;;5115019;28;20448;-77
2022/09/11 06:00:07;;;;;;;68.23;45.37;;;;;;;;;;5114936;28;20460;-76
2022/09/11 06:02:35;;;;;;;65.77;44.57;;;;;;;;;;5114724;28;20524;-78
2022/09/11 06:05:02;;;;;;;65.60;44.90;;;;;;;;;;5115108;28;20431;-77
2022/09/11 06:07:29;;;;;;;65.07;44.77;;;;;;;;;;5114711;28;20444;-77
2022/09/11 06:09:58;;;;;;;71.53;49.27;;;;;;;;;;5115277;28;20528;-77
2022/09/11 06:12:27;;;;;;;67.47;47.43;;;;;;;;;;5114639;28;20434;-77
2022/09/11 06:14:54;;;;;;;73.53;47.90;;;;;;;;;;5114701;28;20527;-77
2022/09/11 06:17:23;;;;;;;80.93;46.80;;;;;;;;;;5114463;28;20486;-77
2022/09/11 06:19:50;;;;;;;71.23;46.20;;;;;;;;;;5113856;28;20499;-77
2022/09/11 06:22:20;;;;;;;70.90;46.07;;;;;;;;;;5113888;28;20469;-85
2022/09/11 06:24:48;;;;;;;69.00;47.33;;;;;;;;;;5114774;28;20449;-85
2022/09/11 06:27:15;;;;;;;74.37;45.80;;;;;;;;;;5115510;28;20540;-86
2022/09/11 06:29:44;;;;;;;71.33;47.03;;;;;;;;;;5098115;28;20478;-87
2022/09/11 06:32:12;;;;;;;53.40;42.20;;;;;;;;;;5094773;28;20449;-86
2022/09/11 06:34:39;;;;;;;56.37;41.27;;;;;;;;;;5095045;28;20786;-86
2022/09/11 06:37:06;;;;;;;50.37;42.10;;;;;;;;;;5095062;28;20447;-85
2022/09/11 06:39:34;;;;;;;53.73;38.93;;;;;;;;;;5095375;28;20482;-86
2022/09/11 06:42:02;;;;;;;49.07;39.40;;;;;;;;;;5095292;28;20484;-85
2022/09/11 06:44:29;;;;;;;40.70;36.40;;;;;;;;;;5095792;28;20458;-86
2022/09/11 06:46:58;;;;;;;40.80;36.43;;;;;;;;;;5095450;28;20437;-85
2022/09/11 06:49:25;;;;;;;40.20;36.07;;;;;;;;;;5095128;28;20452;-85
2022/09/11 06:51:53;;;;;;;40.03;35.83;;;;;;;;;;5094520;28;20477;-86
2022/09/11 06:54:20;;;;;;;42.00;37.50;;;;;;;;;;5095096;28;20481;-86
2022/09/11 06:56:48;;;;;;;42.93;38.03;;;;;;;;;;5095232;28;20442;-85
2022/09/11 06:59:15;;;;;;;42.17;36.10;;;;;;;;;;5095930;28;20478;-84
2022/09/11 07:01:43;;;;;;;40.83;36.83;;;;;;;;;;5095015;28;20447;-87
2022/09/11 07:04:12;;;;;;;41.40;37.20;;;;;;;;;;5094763;28;20970;-85
2022/09/11 07:06:39;;;;;;;42.07;37.90;;;;;;;;;;5095098;28;20917;-85
2022/09/11 07:09:06;;;;;;;39.97;35.77;;;;;;;;;;5094490;28;20453;-85
2022/09/11 07:11:35;;;;;;;40.83;36.47;;;;;;;;;;5094299;28;20455;-85
2022/09/11 07:14:04;;;;;;;39.43;35.30;;;;;;;;;;5095201;28;20891;-85
2022/09/11 07:16:32;;;;;;;39.47;35.33;;;;;;;;;;5095299;28;20876;-85
2022/09/11 07:18:59;;;;;;;42.93;38.33;;;;;;;;;;5094794;28;20472;-85
2022/09/11 07:21:28;;;;;;;44.50;37.97;;;;;;;;;;5095099;28;20450;-85
2022/09/11 07:23:56;;;;;;;46.57;40.57;;;;;;;;;;5095009;28;20805;-85
2022/09/11 07:26:25;;;;;;;50.80;39.30;;;;;;;;;;5094671;28;20442;-85
2022/09/11 07:28:53;;;;;;;47.73;39.90;;;;;;;;;;5094566;28;20474;-85
2022/09/11 07:31:21;;;;;;;44.97;38.70;;;;;;;;;;5094490;28;20525;-86
2022/09/11 07:33:50;;;;;;;45.57;38.50;;;;;;;;;;5094326;28;20924;-85
2022/09/11 07:36:18;;;;;;;49.17;40.83;;;;;;;;;;5094103;28;20450;-85
2022/09/11 07:38:48;;;;;;;44.23;39.30;;;;;;;;;;5094424;28;20481;-85
2022/09/11 07:41:16;;;;;;;52.47;42.27;;;;;;;;;;5094178;28;20437;-84
2022/09/11 07:43:45;;;;;;;48.40;38.53;;;;;;;;;;5094253;28;20451;-85
2022/09/11 07:46:13;;;;;;;53.33;40.47;;;;;;;;;;5094164;28;20926;-85
2022/09/11 07:48:41;;;;;;;55.90;41.00;;;;;;;;;;5094030;28;20434;-85
2022/09/11 07:51:09;;;;;;;50.60;41.77;;;;;;;;;;5093994;28;20475;-85
2022/09/11 07:53:38;;;;;;;48.07;41.33;;;;;;;;;;5094013;28;20437;-85
2022/09/11 07:56:08;;;;;;;54.27;43.70;;;;;;;;;;5093958;28;20461;-84
2022/09/11 07:58:36;;;;;;;54.47;42.77;;;;;;;;;;5094664;28;20469;-81
2022/09/11 08:01:04;;;;;;;49.23;41.50;;;;;;;;;;5094330;28;20430;-83
2022/09/11 08:03:32;;;;;;;55.97;44.60;;;;;;;;;;5094416;28;20452;-83
2022/09/11 08:05:59;;;;;;;59.00;42.20;;;;;;;;;;5094566;28;20445;-84
2022/09/11 08:08:28;;;;;;;59.57;45.60;;;;;;;;;;5094927;28;20460;-83
2022/09/11 08:10:55;;;;;;;58.20;43.20;;;;;;;;;;5094079;28;20488;-84
2022/09/11 08:13:25;;;;;;;58.07;44.57;;;;;;;;;;5094621;28;20428;-83
2022/09/11 08:15:52;;;;;;;55.00;43.80;;;;;;;;;;5094123;28;20510;-83
2022/09/11 08:18:19;;;;;;;59.40;43.40;;;;;;;;;;5092681;28;20544;-77
2022/09/11 08:20:47;;;;;;;63.73;47.60;;;;;;;;;;5092121;28;20444;-76
2022/09/11 08:23:15;;;;;;;61.80;45.60;;;;;;;;;;5092543;28;20449;-77
2022/09/11 08:25:42;;;;;;;55.90;43.20;;;;;;;;;;5092326;28;20443;-77
2022/09/11 08:28:10;;;;;;;63.43;46.67;;;;;;;;;;5092751;28;20457;-82
2022/09/11 08:30:39;;;;;;;52.03;44.50;;;;;;;;;;5095908;28;20553;-84
2022/09/11 08:33:08;;;;;;;57.00;42.40;;;;;;;;;;5094023;28;20440;-79
2022/09/11 08:35:35;;;;;;;53.53;44.40;;;;;;;;;;5093956;28;20537;-86
2022/09/11 08:38:03;;;;;;;49.27;42.93;;;;;;;;;;5094237;28;20445;-81
2022/09/11 08:40:31;;;;;;;48.93;40.03;;;;;;;;;;5093865;28;20914;-78
2022/09/11 08:43:00;;;;;;;54.30;42.33;;;;;;;;;;5093366;28;20825;-80
2022/09/11 08:45:31;;;;;;;50.60;43.13;;;;;;;;;;5094081;28;20517;-89
2022/09/11 08:48:00;;;;;;;55.20;43.17;;;;;;;;;;5094768;28;20428;-81
2022/09/11 08:50:29;;;;;;;52.77;42.53;;;;;;;;;;5097744;28;20443;-87
2022/09/11 08:52:56;;;;;;;53.70;41.67;;;;;;;;;;5092719;28;20557;-80
2022/09/11 08:55:28;;;;;;;47.87;40.87;;;;;;;;;;5115047;28;20431;-79
2022/09/11 08:58:05;;;;;;;51.70;40.87;;;;;;;;;;5105602;27;20477;-82
2022/09/11 09:00:34;;;;;;;45.87;40.80;;;;;;;;;;5097615;28;20435;-82
2022/09/11 09:03:07;;;;;;;49.87;43.67;;;;;;;;;;5095974;28;20461;-83
2022/09/11 09:05:38;;;;;;;48.77;40.87;;;;;;;;;;5095924;28;20452;-83
2022/09/11 09:08:10;;;;;;;55.63;41.70;;;;;;;;;;5094286;28;20466;-82
2022/09/11 09:10:45;;;;;;;46.67;39.60;;;;;;;;;;5096504;28;20959;-81
2022/09/11 09:13:21;;;;;;;43.80;37.80;;;;;;;;;;5096308;28;20421;-82
2022/09/11 09:15:54;;;;;;;53.30;39.67;;;;;;;;;;5097003;28;20433;-82
2022/09/11 09:18:28;;;;;;;42.40;37.67;;;;;;;;;;5096505;28;20491;-82
2022/09/11 09:21:00;;;;;;;45.83;37.60;;;;;;;;;;5096328;28;20439;-82
2022/09/11 09:23:29;;;;;;;47.27;42.30;;;;;;;;;;5096746;28;20438;-81
2022/09/11 09:25:57;;;;;;;41.43;34.60;;;;;;;;;;5097378;28;20451;-84
2022/09/11 09:28:25;;;;;;;46.50;37.93;;;;;;;;;;5096706;28;20984;-82
2022/09/11 09:30:56;;;;;;;42.50;38.00;;;;;;;;;;5096746;28;20978;-81
2022/09/11 09:33:31;;;;;;;39.20;35.30;;;;;;;;;;5097079;28;20920;-80
2022/09/11 09:36:00;;;;;;;37.27;33.40;;;;;;;;;;5097209;28;20411;-80
2022/09/11 09:38:30;;;;;;;37.40;33.87;;;;;;;;;;5096453;28;20973;-80
2022/09/11 09:41:05;;;;;;;37.40;33.63;;;;;;;;;;5096769;28;20485;-81
2022/09/11 09:43:35;;;;;;;37.73;34.00;;;;;;;;;;5097066;28;20866;-81
2022/09/11 09:46:06;;;;;;;40.43;36.17;;;;;;;;;;5096994;28;20409;-80
2022/09/11 09:48:38;;;;;;;41.87;36.93;;;;;;;;;;5097387;28;20456;-81
2022/09/11 09:51:06;;;;;;;39.60;35.60;;;;;;;;;;5096400;28;20803;-81
2022/09/11 09:53:37;;;;;;;36.50;32.97;;;;;;;;;;5096502;28;20445;-81
2022/09/11 09:56:06;;;;;;;38.70;34.80;;;;;;;;;;5095625;28;20445;-81
2022/09/11 09:58:35;;;;;;;37.30;33.90;;;;;;;;;;5095894;28;20445;-81
2022/09/11 10:01:02;;;;;;;36.27;32.97;;;;;;;;;;5095729;28;20435;-81
2022/09/11 10:03:29;;;;;;;33.83;30.53;;;;;;;;;;5096051;28;20437;-81
2022/09/11 10:05:59;;;;;;;36.47;32.80;;;;;;;;;;5096460;28;20870;-81
2022/09/11 10:08:32;;;;;;;37.90;34.27;;;;;;;;;;5096206;28;20472;-78
2022/09/11 10:11:00;;;;;;;34.70;31.40;;;;;;;;;;5095618;28;20453;-79
2022/09/11 10:13:29;;;;;;;35.13;31.87;;;;;;;;;;5096369;28;20448;-78
2022/09/11 10:15:58;;;;;;;35.90;32.10;;;;;;;;;;5096863;28;20429;-78
2022/09/11 10:18:33;;;;;;;36.00;32.60;;;;;;;;;;5096832;28;20450;-78
2022/09/11 10:21:13;;;;;;;36.30;32.87;;;;;;;;;;5095884;28;20472;-81
2022/09/11 10:23:45;;;;;;;220.83;190.00;;;;;;;;;;5096674;28;20891;-82
2022/09/11 10:26:15;;;;;;;35.17;32.03;;;;;;;;;;5096588;28;20434;-81
2022/09/11 10:28:44;;;;;;;34.33;31.00;;;;;;;;;;5096117;28;20512;-82
2022/09/11 10:31:15;;;;;;;34.07;30.83;;;;;;;;;;5094883;28;20512;-81
2022/09/11 10:33:46;;;;;;;35.87;32.57;;;;;;;;;;5096055;28;20441;-81
2022/09/11 10:36:22;;;;;;;79.27;73.13;;;;;;;;;;5095717;28;20401;-81
2022/09/11 10:38:50;;;;;;;33.67;30.47;;;;;;;;;;5096465;28;20447;-81
2022/09/11 10:41:19;;;;;;;32.93;30.23;;;;;;;;;;5094868;28;20559;-80
2022/09/11 10:43:50;;;;;;;35.07;31.87;;;;;;;;;;5096550;28;20461;-80
2022/09/11 10:46:27;;;;;;;31.87;29.17;;;;;;;;;;5096688;28;20433;-81
2022/09/11 10:48:55;;;;;;;32.60;29.80;;;;;;;;;;5096200;28;20462;-81
2022/09/11 10:51:26;;;;;;;33.80;31.00;;;;;;;;;;5096238;28;20482;-81
2022/09/11 10:54:02;;;;;;;33.83;30.83;;;;;;;;;;5096962;28;20440;-81
2022/09/11 10:56:30;;;;;;;33.47;30.60;;;;;;;;;;5096776;28;20429;-81
2022/09/11 10:59:00;;;;;;;32.80;30.10;;;;;;;;;;5095667;28;20460;-82
2022/09/11 11:01:28;;;;;;;35.47;32.37;;;;;;;;;;5095012;28;20469;-80
2022/09/11 11:03:57;;;;;;;32.57;29.50;;;;;;;;;;5095568;28;20453;-81
2022/09/11 11:06:34;;;;;;;31.93;29.20;;;;;;;;;;5096065;28;20464;-81
2022/09/11 11:09:20;;;;;;;41.73;38.13;;;;;;;;;;5095836;28;20472;-81
2022/09/11 11:11:56;;;;;;;32.40;29.73;;;;;;;;;;5093908;28;20494;-80
2022/09/11 11:14:31;;;;;;;31.67;28.67;;;;;;;;;;5096311;28;20449;-81
2022/09/11 11:17:02;;;;;;;32.43;29.83;;;;;;;;;;5095633;28;20430;-80
2022/09/11 11:19:39;;;;;;;29.43;27.23;;;;;;;;;;5095904;28;20470;-81
2022/09/11 11:22:12;;;;;;;32.93;30.23;;;;;;;;;;5094750;28;20951;-80
2022/09/11 11:24:47;;;;;;;32.37;29.90;;;;;;;;;;5095562;28;20454;-81
2022/09/11 11:27:27;;;;;;;34.70;31.60;;;;;;;;;;5095773;28;20431;-81
2022/09/11 11:30:02;;;;;;;30.03;27.53;;;;;;;;;;5095764;28;20468;-80
2022/09/11 11:32:38;;;;;;;30.23;27.53;;;;;;;;;;5095286;28;20467;-81
2022/09/11 11:35:13;;;;;;;29.10;26.70;;;;;;;;;;5095717;28;20464;-81
2022/09/11 11:37:43;;;;;;;30.10;27.50;;;;;;;;;;5095405;28;20430;-81
2022/09/11 11:40:17;;;;;;;30.57;28.00;;;;;;;;;;5095130;28;20440;-81
2022/09/11 11:42:47;;;;;;;33.17;30.57;;;;;;;;;;5094076;28;20461;-82
2022/09/11 11:45:19;;;;;;;29.77;27.40;;;;;;;;;;5094774;28;20523;-81
2022/09/11 11:47:53;;;;;;;30.10;27.60;;;;;;;;;;5094584;28;20796;-81
2022/09/11 11:50:25;;;;;;;30.47;27.87;;;;;;;;;;5094874;28;20501;-80
2022/09/11 11:52:57;;;;;;;31.40;28.70;;;;;;;;;;5095000;28;20518;-81
2022/09/11 11:55:25;;;;;;;28.97;26.63;;;;;;;;;;5096374;28;20412;-81
2022/09/11 11:57:58;;;;;;;34.53;31.90;;;;;;;;;;5095050;28;20449;-81
2022/09/11 12:00:26;;;;;;;31.03;28.53;;;;;;;;;;5094852;28;20800;-81
2022/09/11 12:02:55;;;;;;;38.87;35.27;;;;;;;;;;5093649;28;20929;-80
2022/09/11 12:05:24;;;;;;;30.30;27.40;;;;;;;;;;5094589;28;20438;-80
2022/09/11 12:07:52;;;;;;;31.13;28.53;;;;;;;;;;5094135;28;20421;-81
2022/09/11 12:10:22;;;;;;;35.20;32.43;;;;;;;;;;5094310;28;20491;-81
2022/09/11 12:12:53;;;;;;;29.27;26.97;;;;;;;;;;5093492;28;20491;-81
2022/09/11 12:15:21;;;;;;;30.00;27.77;;;;;;;;;;5094417;28;20402;-81
2022/09/11 12:17:49;;;;;;;33.77;31.27;;;;;;;;;;5094496;28;20451;-81
2022/09/11 12:20:31;;;;;;;30.30;28.10;;;;;;;;;;5093976;28;20831;-80
2022/09/11 12:22:59;;;;;;;29.90;27.73;;;;;;;;;;5095839;28;20521;-81
2022/09/11 12:25:45;;;;;;;29.63;27.43;;;;;;;;;;5098361;28;20435;-80
2022/09/11 12:28:23;;;;;;;29.80;27.70;;;;;;;;;;5097887;28;20454;-80
2022/09/11 12:30:58;;;;;;;26.87;25.07;;;;;;;;;;5098370;28;20434;-82
2022/09/11 12:33:44;;;;;;;28.93;26.87;;;;;;;;;;5097924;28;21404;-81
2022/09/11 12:36:15;;;;;;;28.47;26.60;;;;;;;;;;5099220;28;20462;-81
2022/09/11 12:38:43;;;;;;;28.63;26.63;;;;;;;;;;5098368;28;20460;-81
2022/09/11 12:41:13;;;;;;;31.53;28.80;;;;;;;;;;5098232;28;20454;-80
2022/09/11 12:43:49;;;;;;;29.80;27.70;;;;;;;;;;5098001;28;20439;-81
2022/09/11 12:46:35;;;;;;;27.57;25.67;;;;;;;;;;5098574;28;20468;-80
2022/09/11 12:49:09;;;;;;;28.63;26.33;;;;;;;;;;5098098;28;20479;-80
2022/09/11 12:51:37;;;;;;;32.20;29.50;;;;;;;;;;5097603;28;20905;-80
2022/09/11 12:54:11;;;;;;;32.13;29.67;;;;;;;;;;5097168;28;20471;-81
2022/09/11 12:56:45;;;;;;;31.30;28.90;;;;;;;;;;5097571;28;20430;-81
2022/09/11 12:59:23;;;;;;;31.53;29.03;;;;;;;;;;5097759;28;20508;-81
2022/09/11 13:01:51;;;;;;;31.27;28.37;;;;;;;;;;5096828;28;20973;-80
2022/09/11 13:04:20;;;;;;;32.37;29.97;;;;;;;;;;5097264;28;20452;-81
2022/09/11 13:07:02;;;;;;;34.97;32.13;;;;;;;;;;5095932;28;20775;-81
2022/09/11 13:09:31;;;;;;;31.73;29.10;;;;;;;;;;5096156;28;20491;-81
2022/09/11 13:12:18;;;;;;;31.73;28.80;;;;;;;;;;5096570;28;20425;-81
2022/09/11 13:14:48;;;;;;;33.13;30.50;;;;;;;;;;5096423;28;20466;-81
2022/09/11 13:17:22;;;;;;;282.70;267.50;;;;;;;;;;5096236;28;20496;-81
2022/09/11 13:19:50;;;;;;;31.23;28.83;;;;;;;;;;5096474;28;20540;-81
2022/09/11 13:22:21;;;;;;;30.37;27.97;;;;;;;;;;5096372;28;20410;-81
2022/09/11 13:24:49;;;;;;;30.20;27.90;;;;;;;;;;5096552;28;20426;-81
2022/09/11 13:27:19;;;;;;;31.20;28.73;;;;;;;;;;5096780;28;20452;-82
2022/09/11 13:29:48;;;;;;;31.80;29.00;;;;;;;;;;5096220;28;20479;-79
2022/09/11 13:32:17;;;;;;;31.60;29.20;;;;;;;;;;5096081;28;20497;-81
2022/09/11 13:34:45;;;;;;;29.70;27.40;;;;;;;;;;5095917;28;20446;-81
2022/09/11 13:37:15;;;;;;;31.17;28.67;;;;;;;;;;5096057;28;20458;-80
2022/09/11 13:39:43;;;;;;;29.77;27.53;;;;;;;;;;5095677;28;20455;-80
2022/09/11 13:42:15;;;;;;;30.87;28.27;;;;;;;;;;5095094;28;20440;-80
2022/09/11 13:44:43;;;;;;;28.87;26.57;;;;;;;;;;5095622;28;20451;-81
2022/09/11 13:47:19;;;;;;;29.97;27.67;;;;;;;;;;5095692;28;20446;-80
2022/09/11 13:49:47;;;;;;;32.73;29.83;;;;;;;;;;5095456;28;20471;-81
2022/09/11 13:52:15;;;;;;;30.53;28.33;;;;;;;;;;5094568;28;20467;-81
2022/09/11 13:54:46;;;;;;;30.60;28.20;;;;;;;;;;5095517;28;20842;-80
2022/09/11 13:57:15;;;;;;;27.73;25.57;;;;;;;;;;5095224;28;20448;-80
2022/09/11 14:00:00;;;;;;;29.70;27.63;;;;;;;;;;5095256;28;20481;-82
2022/09/11 14:02:51;;;;;;;30.63;28.00;;;;;;;;;;5094470;28;20425;-80
2022/09/11 14:05:22;;;;;;;29.43;26.90;;;;;;;;;;5095612;28;20432;-81
2022/09/11 14:07:55;;;;;;;30.17;27.57;;;;;;;;;;5098947;28;20437;-82
2022/09/11 14:10:25;;;;;;;28.57;26.30;;;;;;;;;;5096540;28;20486;-81
2022/09/11 14:12:55;;;;;;;27.13;24.83;;;;;;;;;;5095649;28;20908;-82
2022/09/11 14:15:25;;;;;;;29.77;27.67;;;;;;;;;;5096623;28;20444;-81
2022/09/11 14:17:52;;;;;;;27.57;25.37;;;;;;;;;;5096471;28;20789;-82
2022/09/11 14:20:22;;;;;;;27.50;25.50;;;;;;;;;;5096354;28;20462;-81
2022/09/11 14:22:53;;;;;;;28.80;26.70;;;;;;;;;;5095372;28;20432;-81
2022/09/11 14:25:22;;;;;;;28.00;25.97;;;;;;;;;;5095308;28;20885;-81
2022/09/11 14:27:49;;;;;;;27.17;25.17;;;;;;;;;;5095265;28;20818;-81
2022/09/11 14:30:30;;;;;;;31.27;28.90;;;;;;;;;;5095534;28;20483;-82
2022/09/11 14:33:18;;;;;;;29.33;27.10;;;;;;;;;;5095097;28;20453;-81